Time;durP1;ratioP1;P1;durP2;ratioP2;P2;SDS_P1;SDS_P2;PMS_P1;PMS_P2;Temp;Humidity;BMP_temperature;BMP_pressure;BME280_temperature;BME280_humidity;BME280_pressure;Samples;Min_cycle;Max_cycle;Signal;HPM_P1;HPM_P2
2021/05/07 00:01:13;;;;;;;15.37;12.03;;;5.40;99.90;;;;;;4994645;28;20266;-73
2021/05/07 00:03:39;;;;;;;16.87;10.93;;;5.40;99.90;;;;;;5010842;28;20174;-73
2021/05/07 00:06:05;;;;;;;13.60;11.07;;;5.50;99.90;;;;;;4994480;28;20636;-73
2021/05/07 00:08:32;;;;;;;13.93;10.83;;;5.40;99.90;;;;;;4994611;28;20607;-73
2021/05/07 00:10:59;;;;;;;13.93;11.07;;;5.40;99.90;;;;;;4994442;28;20760;-77
2021/05/07 00:13:24;;;;;;;13.90;11.87;;;5.40;99.90;;;;;;5010688;28;20175;-76
2021/05/07 00:15:50;;;;;;;13.80;11.07;;;5.40;99.90;;;;;;5010755;28;20693;-76
2021/05/07 00:18:15;;;;;;;14.37;11.43;;;5.30;99.90;;;;;;5010750;28;20179;-76
2021/05/07 00:20:41;;;;;;;14.50;11.77;;;5.20;99.90;;;;;;5010589;28;20187;-76
2021/05/07 00:23:06;;;;;;;16.00;12.57;;;5.20;99.90;;;;;;5011679;28;20202;-76
2021/05/07 00:25:32;;;;;;;14.97;12.03;;;5.20;99.90;;;;;;5010694;28;20556;-76
2021/05/07 00:28:05;;;;;;;16.53;12.53;;;5.20;99.90;;;;;;5015464;28;20667;-76
2021/05/07 00:30:31;;;;;;;15.37;12.60;;;5.20;99.90;;;;;;5015536;28;20628;-76
2021/05/07 00:32:57;;;;;;;14.77;12.23;;;5.20;99.90;;;;;;5015448;28;20175;-76
2021/05/07 00:35:22;;;;;;;15.33;12.63;;;5.30;99.90;;;;;;5014970;28;20172;-76
2021/05/07 00:37:48;;;;;;;14.77;11.10;;;5.30;99.90;;;;;;5015388;28;20245;-77
2021/05/07 00:40:14;;;;;;;15.83;11.40;;;5.30;99.90;;;;;;5014273;28;20194;-75
2021/05/07 00:42:39;;;;;;;14.70;11.30;;;5.40;99.90;;;;;;4998001;28;20210;-75
2021/05/07 00:45:09;;;;;;;13.73;11.33;;;5.40;99.90;;;;;;4997613;28;20184;-75
2021/05/07 00:47:39;;;;;;;14.67;10.30;;;5.40;99.90;;;;;;5015108;28;20194;-75
2021/05/07 00:50:06;;;;;;;12.10;10.40;;;5.40;99.90;;;;;;4997695;28;20545;-76
2021/05/07 00:52:34;;;;;;;13.73;9.63;;;5.30;99.90;;;;;;4997556;28;20229;-75
2021/05/07 00:55:01;;;;;;;11.50;9.57;;;5.30;99.90;;;;;;5013844;28;20652;-75
2021/05/07 00:57:27;;;;;;;11.73;9.87;;;5.30;99.90;;;;;;5014096;28;20177;-76
2021/05/07 00:59:53;;;;;;;10.73;9.13;;;5.30;99.90;;;;;;5013894;28;20265;-76
2021/05/07 01:02:18;;;;;;;12.40;10.10;;;5.20;99.90;;;;;;4997588;28;20674;-76
2021/05/07 01:04:44;;;;;;;11.47;9.67;;;5.20;99.90;;;;;;4997153;28;20189;-75
2021/05/07 01:07:10;;;;;;;12.87;8.80;;;5.20;99.90;;;;;;5014867;28;20222;-75
2021/05/07 01:09:35;;;;;;;10.43;8.97;;;5.20;99.90;;;;;;5013756;28;20217;-75
2021/05/07 01:12:01;;;;;;;12.40;8.90;;;5.10;99.90;;;;;;4997199;28;20195;-78
2021/05/07 01:14:26;;;;;;;12.40;9.67;;;5.10;99.90;;;;;;4997248;28;20169;-76
2021/05/07 01:16:52;;;;;;;11.17;8.63;;;5.10;99.90;;;;;;5014809;28;20229;-75
2021/05/07 01:19:17;;;;;;;12.37;9.57;;;5.00;99.90;;;;;;5014709;28;20179;-76
2021/05/07 01:21:44;;;;;;;10.00;8.73;;;5.00;99.90;;;;;;5013652;28;20245;-75
2021/05/07 01:24:10;;;;;;;11.63;9.47;;;5.00;99.90;;;;;;5014384;28;20182;-75
2021/05/07 01:26:42;;;;;;;11.73;9.17;;;5.00;99.90;;;;;;5014566;28;20221;-75
2021/05/07 01:29:11;;;;;;;14.10;9.80;;;5.00;99.90;;;;;;5014443;28;20653;-76
2021/05/07 01:31:37;;;;;;;12.33;9.43;;;4.90;99.90;;;;;;4996975;28;20198;-75
2021/05/07 01:34:03;;;;;;;11.37;9.43;;;4.90;99.90;;;;;;5013028;28;20179;-76
2021/05/07 01:36:28;;;;;;;14.13;9.83;;;4.80;99.90;;;;;;4996798;28;20184;-75
2021/05/07 01:38:54;;;;;;;13.43;9.37;;;4.80;99.90;;;;;;5013025;28;21355;-76
2021/05/07 01:41:19;;;;;;;12.60;8.87;;;4.80;99.90;;;;;;4996171;28;20763;-75
2021/05/07 01:43:45;;;;;;;13.10;9.23;;;4.70;99.90;;;;;;4996553;28;20639;-75
2021/05/07 01:46:10;;;;;;;12.50;9.30;;;4.70;99.90;;;;;;5012809;28;20685;-76
2021/05/07 01:48:36;;;;;;;13.40;9.57;;;4.60;99.90;;;;;;5012872;28;20191;-76
2021/05/07 01:51:05;;;;;;;12.80;9.50;;;4.60;99.90;;;;;;5013955;28;20237;-78
2021/05/07 01:53:30;;;;;;;12.80;9.50;;;4.60;99.90;;;;;;4980239;28;20183;-75
2021/05/07 01:55:56;;;;;;;13.77;10.33;;;4.60;99.90;;;;;;5012649;28;20532;-76
2021/05/07 01:58:21;;;;;;;15.27;10.10;;;4.60;99.90;;;;;;5012781;28;20648;-76
2021/05/07 02:00:47;;;;;;;14.50;11.37;;;4.50;99.90;;;;;;4996236;28;20571;-75
2021/05/07 02:03:13;;;;;;;14.93;10.93;;;4.50;99.90;;;;;;4996148;28;20194;-75
2021/05/07 02:05:38;;;;;;;14.90;11.60;;;4.50;99.90;;;;;;5012569;28;20167;-76
2021/05/07 02:08:05;;;;;;;15.57;11.83;;;4.50;99.90;;;;;;4996052;28;20222;-75
2021/05/07 02:10:30;;;;;;;18.07;12.80;;;4.50;99.90;;;;;;5012325;28;20176;-77
2021/05/07 02:12:57;;;;;;;18.73;13.00;;;4.50;99.90;;;;;;5012215;28;20237;-76
2021/05/07 02:15:23;;;;;;;20.23;14.57;;;4.50;99.90;;;;;;5012045;28;20229;-76
2021/05/07 02:17:49;;;;;;;18.97;14.13;;;4.60;99.90;;;;;;4995846;28;20594;-76
2021/05/07 02:20:16;;;;;;;22.57;15.40;;;4.60;99.90;;;;;;4995960;28;20176;-77
2021/05/07 02:22:42;;;;;;;20.13;14.33;;;4.50;99.90;;;;;;4995629;28;20197;-75
2021/05/07 02:25:08;;;;;;;21.97;15.43;;;4.50;99.90;;;;;;5012151;28;20184;-75
2021/05/07 02:27:34;;;;;;;22.23;16.53;;;4.50;99.90;;;;;;5012070;28;20643;-76
2021/05/07 02:29:59;;;;;;;22.37;16.60;;;4.50;99.90;;;;;;4995773;28;20171;-75
2021/05/07 02:32:25;;;;;;;23.03;16.03;;;4.50;99.90;;;;;;4979355;28;20203;-77
2021/05/07 02:34:50;;;;;;;22.57;16.67;;;4.60;99.90;;;;;;4979413;28;20199;-76
2021/05/07 02:37:16;;;;;;;24.30;17.17;;;4.60;99.90;;;;;;4995907;28;20550;-76
2021/05/07 02:39:41;;;;;;;24.73;16.77;;;4.60;99.90;;;;;;5012017;28;20655;-76
2021/05/07 02:42:07;;;;;;;24.93;18.20;;;4.60;99.90;;;;;;5011472;28;20211;-76
2021/05/07 02:44:33;;;;;;;24.67;18.10;;;4.60;99.90;;;;;;5010959;28;20217;-75
2021/05/07 02:47:03;;;;;;;23.83;18.40;;;4.50;99.90;;;;;;4995275;28;20199;-75
2021/05/07 02:49:35;;;;;;;25.67;17.63;;;4.50;99.90;;;;;;5011280;28;20629;-76
2021/05/07 02:52:02;;;;;;;22.87;17.80;;;4.50;99.90;;;;;;4996351;28;20201;-75
2021/05/07 02:54:28;;;;;;;26.43;18.73;;;4.40;99.90;;;;;;4994927;28;20176;-75
2021/05/07 02:56:54;;;;;;;27.90;18.57;;;4.30;99.90;;;;;;5011834;28;20233;-76
2021/05/07 02:59:19;;;;;;;23.67;17.83;;;4.40;99.90;;;;;;5011695;28;20216;-77
2021/05/07 03:01:45;;;;;;;24.50;17.80;;;4.30;99.90;;;;;;5011178;28;20221;-75
2021/05/07 03:04:11;;;;;;;25.17;18.40;;;4.30;99.90;;;;;;4978725;28;20193;-75
2021/05/07 03:06:36;;;;;;;26.10;19.10;;;4.40;99.90;;;;;;4995089;28;20205;-76
2021/05/07 03:09:03;;;;;;;27.53;19.43;;;4.40;99.90;;;;;;5011448;28;20183;-77
2021/05/07 03:11:28;;;;;;;26.53;19.57;;;4.30;99.90;;;;;;5011566;28;20206;-76
2021/05/07 03:13:54;;;;;;;29.90;20.27;;;4.30;99.90;;;;;;4994799;28;20183;-76
2021/05/07 03:16:22;;;;;;;29.70;20.03;;;4.30;99.90;;;;;;4994712;28;20187;-76
2021/05/07 03:18:48;;;;;;;28.70;20.27;;;4.20;99.90;;;;;;4995255;28;20202;-76
2021/05/07 03:21:14;;;;;;;27.47;19.27;;;4.20;99.90;;;;;;5011488;28;20199;-75
2021/05/07 03:23:39;;;;;;;29.27;21.30;;;4.30;99.90;;;;;;4995014;28;20188;-76
2021/05/07 03:26:05;;;;;;;29.07;21.27;;;4.30;99.90;;;;;;5011064;28;20181;-75
2021/05/07 03:28:30;;;;;;;31.77;22.23;;;4.30;99.90;;;;;;5012423;28;20218;-76
2021/05/07 03:30:56;;;;;;;31.33;22.50;;;4.30;99.90;;;;;;5010948;28;20237;-75
2021/05/07 03:33:21;;;;;;;36.17;22.60;;;4.40;99.90;;;;;;5011247;28;20393;-75
2021/05/07 03:35:47;;;;;;;30.63;22.17;;;4.30;99.90;;;;;;4994597;28;20193;-75
2021/05/07 03:38:12;;;;;;;34.40;24.30;;;4.30;99.90;;;;;;4994846;28;20213;-76
2021/05/07 03:40:38;;;;;;;35.97;24.63;;;4.30;99.90;;;;;;4978571;28;20554;-75
2021/05/07 03:43:04;;;;;;;34.30;25.40;;;4.30;99.90;;;;;;5011092;28;20490;-75
2021/05/07 03:45:29;;;;;;;36.27;25.60;;;4.30;99.90;;;;;;5012199;28;20222;-75
2021/05/07 03:47:55;;;;;;;34.47;25.17;;;4.30;99.90;;;;;;4994468;28;20250;-76
2021/05/07 03:50:21;;;;;;;37.07;26.13;;;4.30;99.90;;;;;;4994471;28;20237;-75
2021/05/07 03:52:46;;;;;;;37.33;25.13;;;4.40;99.90;;;;;;5010430;28;20229;-76
2021/05/07 03:55:12;;;;;;;35.93;25.63;;;4.40;99.90;;;;;;5010850;28;20424;-76
2021/05/07 03:57:38;;;;;;;35.43;25.77;;;4.40;99.90;;;;;;4994368;28;20246;-76
2021/05/07 04:00:05;;;;;;;34.37;24.43;;;4.40;99.90;;;;;;4978360;28;20215;-76
2021/05/07 04:02:31;;;;;;;34.13;24.07;;;4.40;99.90;;;;;;5049988;23;20261;-80
2021/05/07 04:04:56;;;;;;;35.13;24.57;;;4.50;99.90;;;;;;5017743;28;20281;-80
2021/05/07 04:07:22;;;;;;;30.97;22.67;;;4.40;99.90;;;;;;5034207;28;20726;-78
2021/05/07 04:12:17;;;;;;;29.73;22.73;;;4.50;99.90;;;;;;5034514;28;20195;-79
2021/05/07 04:14:43;;;;;;;29.73;21.80;;;4.50;99.90;;;;;;5034145;28;20544;-79
2021/05/07 04:17:08;;;;;;;31.63;22.60;;;4.60;99.90;;;;;;5034238;28;20242;-80
2021/05/07 04:19:34;;;;;;;31.13;21.23;;;4.80;99.90;;;;;;5033934;28;20247;-79
2021/05/07 04:21:59;;;;;;;31.70;22.90;;;4.80;99.90;;;;;;5034017;28;20280;-79
2021/05/07 04:24:25;;;;;;;28.87;21.90;;;4.70;99.90;;;;;;5033847;28;20182;-79
2021/05/07 04:26:52;;;;;;;29.50;22.13;;;4.60;99.90;;;;;;5033858;28;20203;-79
2021/05/07 04:29:19;;;;;;;29.07;22.33;;;4.50;99.90;;;;;;5017418;28;20719;-79
2021/05/07 04:31:46;;;;;;;31.27;22.93;;;4.50;99.90;;;;;;5033552;28;20685;-80
2021/05/07 04:34:12;;;;;;;35.17;23.83;;;4.60;99.90;;;;;;5033433;28;20236;-80
2021/05/07 04:36:37;;;;;;;32.10;23.50;;;4.60;99.90;;;;;;5033885;28;20650;-78
2021/05/07 04:39:03;;;;;;;35.07;24.43;;;4.60;99.90;;;;;;5033830;28;20594;-80
2021/05/07 04:41:29;;;;;;;33.20;24.40;;;4.60;99.90;;;;;;5017060;28;20236;-80
2021/05/07 04:43:54;;;;;;;36.17;24.53;;;4.70;99.90;;;;;;5033546;28;20650;-80
2021/05/07 04:46:20;;;;;;;35.87;25.90;;;4.60;99.90;;;;;;5033354;28;20213;-79
2021/05/07 04:48:46;;;;;;;40.73;27.47;;;4.80;99.90;;;;;;5010744;28;20205;-76
2021/05/07 04:51:11;;;;;;;39.93;27.37;;;4.70;99.90;;;;;;5035113;28;20282;-78
2021/05/07 04:53:37;;;;;;;38.00;26.87;;;4.80;99.90;;;;;;5033662;28;20193;-78
2021/05/07 04:56:03;;;;;;;39.63;27.37;;;4.90;99.90;;;;;;5034851;28;20193;-78
2021/05/07 04:58:28;;;;;;;37.70;26.37;;;4.90;99.90;;;;;;5017298;28;20196;-75
2021/05/07 05:00:54;;;;;;;40.10;28.07;;;5.00;99.90;;;;;;5033214;28;20688;-76
2021/05/07 05:03:19;;;;;;;39.57;27.50;;;5.00;99.90;;;;;;5016951;28;20643;-76
2021/05/07 05:05:45;;;;;;;37.97;27.00;;;5.10;99.90;;;;;;5033387;28;20688;-77
2021/05/07 05:08:10;;;;;;;39.53;27.50;;;5.10;99.90;;;;;;5033458;28;20666;-81
2021/05/07 05:10:36;;;;;;;38.77;26.17;;;5.30;99.90;;;;;;5017181;28;20244;-76
2021/05/07 05:13:01;;;;;;;40.47;27.63;;;5.20;99.90;;;;;;5033332;28;20694;-76
2021/05/07 05:15:27;;;;;;;39.63;27.47;;;5.20;99.90;;;;;;5031717;28;20273;-76
2021/05/07 05:17:53;;;;;;;39.30;27.73;;;5.20;99.90;;;;;;5033415;28;20173;-74
2021/05/07 05:20:18;;;;;;;45.00;27.03;;;5.30;99.90;;;;;;5032460;28;20655;-76
2021/05/07 05:22:44;;;;;;;35.67;24.63;;;5.50;99.90;;;;;;5016377;28;20221;-75
2021/05/07 05:25:10;;;;;;;31.27;23.63;;;5.50;99.90;;;;;;5032429;28;20182;-75
2021/05/07 05:27:35;;;;;;;31.40;22.73;;;5.70;99.90;;;;;;5032802;28;20196;-77
2021/05/07 05:30:02;;;;;;;29.37;22.90;;;5.80;99.90;;;;;;5033091;28;20183;-79
2021/05/07 05:32:28;;;;;;;29.10;22.60;;;5.90;99.90;;;;;;5032618;28;20753;-78
2021/05/07 05:34:53;;;;;;;28.73;21.20;;;6.00;99.90;;;;;;5015521;28;20177;-77
2021/05/07 05:37:19;;;;;;;24.93;19.87;;;6.00;99.90;;;;;;5032802;28;20684;-76
2021/05/07 05:39:45;;;;;;;24.33;19.10;;;6.10;99.90;;;;;;5015936;28;20568;-76
2021/05/07 05:42:11;;;;;;;27.57;20.93;;;6.00;99.90;;;;;;5016023;28;20199;-77
2021/05/07 05:44:36;;;;;;;26.40;19.40;;;6.10;99.90;;;;;;5033999;28;20260;-73
2021/05/07 05:47:02;;;;;;;27.03;20.30;;;6.00;99.90;;;;;;5002106;28;20680;-78
2021/05/07 05:49:27;;;;;;;31.03;20.63;;;6.00;99.90;;;;;;5032478;28;20182;-77
2021/05/07 05:51:53;;;;;;;26.83;20.10;;;6.00;99.90;;;;;;5033717;28;20200;-74
2021/05/07 05:54:19;;;;;;;24.03;18.60;;;6.00;99.90;;;;;;5032210;28;20194;-76
2021/05/07 05:56:45;;;;;;;24.03;18.63;;;6.10;99.90;;;;;;5032490;28;20201;-76
2021/05/07 05:59:11;;;;;;;22.07;17.80;;;6.10;99.90;;;;;;5037311;28;20220;-76
2021/05/07 06:01:36;;;;;;;25.47;18.73;;;6.20;99.90;;;;;;5005641;28;20207;-76
2021/05/07 06:04:02;;;;;;;27.40;18.23;;;6.20;99.90;;;;;;5044599;28;20171;-77
2021/05/07 06:06:27;;;;;;;21.53;16.67;;;6.20;99.90;;;;;;5052906;28;20203;-75
2021/05/07 06:08:53;;;;;;;24.70;17.50;;;6.20;99.90;;;;;;5052150;28;20208;-76
2021/05/07 06:11:18;;;;;;;21.37;16.67;;;6.20;99.90;;;;;;5009873;28;20198;-77
2021/05/07 06:13:44;;;;;;;22.83;17.07;;;6.30;99.90;;;;;;5015360;28;20183;-76
2021/05/07 06:16:10;;;;;;;22.27;15.97;;;6.40;99.90;;;;;;5033903;28;20175;-75
2021/05/07 06:18:35;;;;;;;22.93;16.50;;;6.40;99.90;;;;;;5032475;28;20186;-76
2021/05/07 06:21:01;;;;;;;17.63;15.63;;;6.50;99.90;;;;;;5031375;28;20225;-76
2021/05/07 06:23:26;;;;;;;18.40;15.50;;;6.60;99.90;;;;;;5030048;28;20175;-76
2021/05/07 06:25:52;;;;;;;19.23;14.60;;;6.60;99.90;;;;;;5031345;28;20638;-74
2021/05/07 06:28:18;;;;;;;18.23;14.43;;;6.70;99.90;;;;;;5026599;28;20206;-75
2021/05/07 06:30:44;;;;;;;19.80;15.37;;;6.70;99.90;;;;;;5039833;28;20174;-76
2021/05/07 06:33:10;;;;;;;20.30;14.63;;;6.70;99.90;;;;;;5031511;28;20180;-72
2021/05/07 06:35:35;;;;;;;20.13;14.93;;;6.80;99.90;;;;;;5030918;28;20175;-71
2021/05/07 06:38:02;;;;;;;20.00;15.03;;;6.80;99.90;;;;;;5012705;28;20704;-71
2021/05/07 06:40:27;;;;;;;19.93;14.33;;;6.80;99.90;;;;;;5040288;28;20187;-71
2021/05/07 06:42:53;;;;;;;22.33;15.00;;;6.80;99.90;;;;;;5033997;28;20206;-72
2021/05/07 06:45:18;;;;;;;19.37;14.37;;;6.80;99.90;;;;;;5036588;28;20240;-72
2021/05/07 06:47:44;;;;;;;18.27;14.87;;;6.80;99.90;;;;;;5035065;28;20202;-72
2021/05/07 06:50:11;;;;;;;17.50;13.77;;;6.70;99.90;;;;;;5011481;28;20665;-69
2021/05/07 06:52:37;;;;;;;17.93;14.63;;;6.70;99.90;;;;;;5011433;28;20198;-75
2021/05/07 06:55:03;;;;;;;17.93;14.80;;;6.80;99.90;;;;;;4995204;28;20593;-76
2021/05/07 06:57:29;;;;;;;21.07;14.37;;;6.80;99.90;;;;;;5011508;28;20194;-75
2021/05/07 06:59:54;;;;;;;17.43;14.77;;;6.90;99.90;;;;;;5011714;28;20186;-76
2021/05/07 07:02:20;;;;;;;18.07;14.93;;;6.90;99.90;;;;;;5012568;28;20218;-77
2021/05/07 07:04:46;;;;;;;18.77;14.73;;;7.10;99.90;;;;;;5011346;28;20183;-75
2021/05/07 07:07:15;;;;;;;19.60;14.70;;;7.00;99.90;;;;;;5011935;28;20740;-73
2021/05/07 07:09:40;;;;;;;17.77;14.60;;;7.00;99.90;;;;;;5031061;28;20246;-74
2021/05/07 07:12:06;;;;;;;19.50;14.97;;;7.00;99.90;;;;;;5030847;28;20246;-76
2021/05/07 07:14:37;;;;;;;18.23;15.10;;;6.80;99.90;;;;;;5014461;28;20177;-75
2021/05/07 07:17:03;;;;;;;21.83;15.50;;;6.80;99.90;;;;;;5031026;28;20185;-75
2021/05/07 07:19:29;;;;;;;19.07;14.47;;;6.70;99.90;;;;;;5030923;28;20202;-73
2021/05/07 07:21:54;;;;;;;17.20;14.60;;;6.80;99.90;;;;;;5031048;28;20203;-80
2021/05/07 07:24:20;;;;;;;20.30;14.40;;;6.70;99.90;;;;;;5014728;28;20186;-76
2021/05/07 07:26:45;;;;;;;18.33;13.73;;;6.80;99.90;;;;;;5031014;28;20218;-76
2021/05/07 07:29:11;;;;;;;18.00;14.10;;;6.80;99.90;;;;;;5014011;28;20634;-75
2021/05/07 07:31:36;;;;;;;18.00;12.67;;;7.00;99.90;;;;;;5030854;28;20244;-77
2021/05/07 07:34:02;;;;;;;18.30;12.13;;;7.20;99.90;;;;;;5031796;28;20210;-74
2021/05/07 07:36:28;;;;;;;13.63;10.33;;;7.50;99.90;;;;;;5030466;28;20181;-75
2021/05/07 07:38:53;;;;;;;13.23;11.13;;;7.70;99.90;;;;;;5030622;28;20245;-75
2021/05/07 07:41:19;;;;;;;13.43;11.00;;;7.90;99.90;;;;;;5032039;28;20209;-76
2021/05/07 07:43:45;;;;;;;11.90;10.43;;;8.00;99.90;;;;;;5030588;28;20257;-74
2021/05/07 07:46:10;;;;;;;15.83;10.47;;;8.20;99.90;;;;;;5037647;28;20188;-76
2021/05/07 07:48:36;;;;;;;11.40;9.20;;;8.30;99.90;;;;;;5033825;28;20673;-74
2021/05/07 07:51:01;;;;;;;11.37;9.93;;;8.30;99.90;;;;;;5033793;28;20182;-75
2021/05/07 07:53:27;;;;;;;11.80;8.77;;;8.60;99.90;;;;;;5050468;28;20212;-75
2021/05/07 07:55:53;;;;;;;8.80;7.23;;;9.00;99.90;;;;;;5034620;28;20207;-76
2021/05/07 07:58:19;;;;;;;10.83;8.37;;;8.90;99.90;;;;;;5033919;28;20649;-76
2021/05/07 08:00:46;;;;;;;11.50;8.90;;;8.90;99.90;;;;;;5030515;28;20182;-74
2021/05/07 08:03:11;;;;;;;11.70;9.37;;;8.80;99.90;;;;;;4994777;28;20199;-76
2021/05/07 08:05:37;;;;;;;10.90;8.43;;;8.80;99.90;;;;;;5010636;28;20662;-77
2021/05/07 08:08:03;;;;;;;11.97;7.80;;;8.90;99.90;;;;;;5043818;28;20255;-77
2021/05/07 08:10:29;;;;;;;9.93;7.87;;;8.70;99.90;;;;;;5051679;28;20177;-78
2021/05/07 08:12:54;;;;;;;8.80;7.90;;;8.40;99.90;;;;;;5033583;28;20198;-75
2021/05/07 08:15:20;;;;;;;9.50;8.17;;;8.10;99.90;;;;;;5050116;28;20181;-77
2021/05/07 08:17:47;;;;;;;10.87;7.60;;;7.80;99.90;;;;;;5050271;28;20189;-77
2021/05/07 08:20:13;;;;;;;12.10;9.93;;;7.80;99.90;;;;;;5033561;28;20186;-75
2021/05/07 08:22:39;;;;;;;10.17;9.07;;;8.30;99.90;;;;;;5017695;28;20209;-75
2021/05/07 08:25:05;;;;;;;11.47;8.97;;;8.80;99.90;;;;;;5031298;28;20265;-75
2021/05/07 08:27:30;;;;;;;8.60;7.70;;;9.40;99.90;;;;;;5030385;28;20234;-71
2021/05/07 08:29:56;;;;;;;8.43;6.13;;;9.90;99.90;;;;;;5034919;28;20266;-71
2021/05/07 08:32:22;;;;;;;7.20;5.80;;;10.40;99.90;;;;;;5030175;28;20286;-72
2021/05/07 08:34:47;;;;;;;8.07;5.67;;;10.50;99.90;;;;;;5014468;28;20195;-73
2021/05/07 08:37:13;;;;;;;7.40;6.30;;;10.30;99.90;;;;;;5046499;28;20249;-72
2021/05/07 08:39:39;;;;;;;7.20;5.63;;;9.90;99.90;;;;;;5030540;28;20202;-72
2021/05/07 08:42:09;;;;;;;6.67;5.70;;;9.40;99.90;;;;;;5030008;28;20776;-72
2021/05/07 08:44:35;;;;;;;7.53;5.87;;;8.90;99.90;;;;;;5023171;28;20178;-73
2021/05/07 08:47:01;;;;;;;7.20;6.00;;;8.90;99.90;;;;;;5050899;28;20198;-72
2021/05/07 08:49:26;;;;;;;6.07;5.37;;;9.00;99.90;;;;;;5050509;28;20179;-73
2021/05/07 08:51:52;;;;;;;6.87;5.13;;;9.40;99.90;;;;;;5033625;28;20205;-72
2021/05/07 08:54:17;;;;;;;6.20;5.00;;;9.50;99.90;;;;;;5017294;28;20697;-73
2021/05/07 08:56:44;;;;;;;6.30;5.03;;;9.30;99.90;;;;;;5033344;28;20173;-73
2021/05/07 08:59:09;;;;;;;6.30;5.20;;;9.10;99.90;;;;;;5033624;28;20221;-73
2021/05/07 09:01:42;;;;;;;7.87;5.07;;;8.90;99.90;;;;;;5033583;28;20238;-74
2021/05/07 09:04:12;;;;;;;7.47;4.70;;;8.80;99.90;;;;;;5017123;28;20673;-73
2021/05/07 09:06:52;;;;;;;6.00;4.80;;;8.70;99.90;;;;;;5016939;28;20270;-72
2021/05/07 09:09:21;;;;;;;5.83;4.63;;;8.80;99.90;;;;;;5033682;28;20159;-73
2021/05/07 09:11:47;;;;;;;5.43;4.57;;;8.80;99.90;;;;;;5017162;28;20203;-73
2021/05/07 09:14:12;;;;;;;7.97;5.03;;;8.80;99.90;;;;;;5034499;28;20226;-73
2021/05/07 09:16:49;;;;;;;5.13;4.50;;;8.70;99.90;;;;;;5034021;28;20179;-73
2021/05/07 09:19:19;;;;;;;5.47;4.40;;;8.80;99.90;;;;;;5009847;28;20175;-73
2021/05/07 09:21:44;;;;;;;6.47;4.53;;;9.40;99.90;;;;;;5015811;28;20309;-72
2021/05/07 09:24:10;;;;;;;4.80;3.87;;;10.10;99.90;;;;;;5016701;28;20193;-73
2021/05/07 09:26:49;;;;;;;4.50;3.83;;;10.30;99.90;;;;;;4999927;28;20568;-72
2021/05/07 09:29:19;;;;;;;4.50;3.90;;;10.30;99.90;;;;;;5032958;28;20189;-73
2021/05/07 09:31:49;;;;;;;6.07;3.97;;;9.90;99.90;;;;;;5050301;28;20712;-73
2021/05/07 09:34:15;;;;;;;4.57;3.97;;;9.60;99.90;;;;;;5036744;28;20265;-73
2021/05/07 09:36:41;;;;;;;5.20;3.60;;;9.30;99.90;;;;;;5035893;28;20694;-73
2021/05/07 09:39:27;;;;;;;4.70;4.00;;;9.00;99.90;;;;;;5045316;28;20175;-73
2021/05/07 09:41:53;;;;;;;4.50;3.73;;;8.80;99.90;;;;;;5030858;28;20257;-72
2021/05/07 09:44:23;;;;;;;5.63;4.50;;;8.90;99.90;;;;;;5032621;28;20187;-72
2021/05/07 09:46:49;;;;;;;5.47;4.47;;;10.00;99.90;;;;;;5032795;28;20667;-73
2021/05/07 09:49:31;;;;;;;4.77;3.57;;;11.30;99.90;;;;;;5032833;28;20214;-72
2021/05/07 09:51:57;;;;;;;4.07;3.53;;;12.00;99.90;;;;;;5032723;28;20959;-72
2021/05/07 09:54:23;;;;;;;2.87;2.30;;;11.90;99.90;;;;;;5032664;28;20808;-72
2021/05/07 09:56:48;;;;;;;2.50;2.30;;;11.40;99.90;;;;;;5032253;28;20189;-73
2021/05/07 09:59:18;;;;;;;6.00;2.77;;;10.90;99.90;;;;;;5033327;28;20544;-72
2021/05/07 10:01:44;;;;;;;4.43;2.90;;;10.60;99.90;;;;;;5024949;23;20320;-71
2021/05/07 10:04:11;;;;;;;3.40;2.23;;;10.50;99.90;;;;;;5013977;28;20575;-73
2021/05/07 10:06:37;;;;;;;3.90;2.20;;;10.30;99.90;;;;;;5013141;28;20173;-74
2021/05/07 10:09:03;;;;;;;3.13;2.30;;;10.40;99.90;;;;;;5030281;28;20223;-73
2021/05/07 10:11:40;;;;;;;3.10;2.43;;;10.40;99.90;;;;;;5012812;28;20260;-74
2021/05/07 10:14:10;;;;;;;3.90;2.37;;;10.30;99.90;;;;;;4979724;28;20174;-72
2021/05/07 10:16:36;;;;;;;2.67;2.47;;;10.20;99.90;;;;;;4978964;28;20537;-72
2021/05/07 10:19:11;;;;;;;4.43;2.80;;;10.10;99.90;;;;;;4963057;28;20175;-72
2021/05/07 10:21:42;;;;;;;3.23;2.93;;;9.80;99.90;;;;;;4995728;28;20207;-72
2021/05/07 10:24:13;;;;;;;3.33;2.63;;;9.60;99.90;;;;;;4963580;28;20676;-72
2021/05/07 10:26:42;;;;;;;5.20;3.13;;;9.40;99.90;;;;;;4963669;28;20233;-72
2021/05/07 10:29:15;;;;;;;4.37;3.20;;;9.90;99.90;;;;;;4995656;28;20181;-73
2021/05/07 10:31:57;;;;;;;4.23;3.27;;;10.60;99.90;;;;;;5031644;28;20208;-74
2021/05/07 10:34:23;;;;;;;4.90;3.03;;;11.40;99.90;;;;;;5015988;28;20175;-74
2021/05/07 10:36:51;;;;;;;3.90;3.07;;;11.70;99.90;;;;;;5014958;28;20178;-73
2021/05/07 10:39:24;;;;;;;3.80;2.53;;;12.10;99.90;;;;;;5015475;28;20169;-73
2021/05/07 10:41:51;;;;;;;3.53;2.43;;;12.10;99.90;;;;;;5000419;28;20179;-73
2021/05/07 10:44:17;;;;;;;2.63;2.03;;;12.10;99.90;;;;;;4975932;28;20185;-73
2021/05/07 10:46:43;;;;;;;3.57;2.37;;;12.50;99.90;;;;;;4991434;28;20182;-71
2021/05/07 10:49:09;;;;;;;3.27;2.50;;;12.50;99.90;;;;;;5005083;28;20178;-73
2021/05/07 10:51:34;;;;;;;3.70;2.70;;;12.40;99.90;;;;;;5006631;28;20548;-72
2021/05/07 10:54:08;;;;;;;2.30;2.10;;;12.20;99.90;;;;;;5008865;28;20194;-73
2021/05/07 10:56:35;;;;;;;2.83;2.40;;;12.00;99.90;;;;;;5014393;28;20173;-72
2021/05/07 10:59:14;;;;;;;3.53;2.37;;;12.20;99.90;;;;;;4995154;28;20177;-73
2021/05/07 11:01:39;;;;;;;3.57;2.37;;;12.20;99.90;;;;;;4994876;28;20540;-73
2021/05/07 11:04:06;;;;;;;3.00;2.33;;;12.60;99.90;;;;;;4979029;28;20741;-74
2021/05/07 11:06:42;;;;;;;2.70;2.10;;;12.80;99.90;;;;;;4995081;28;20185;-74
2021/05/07 11:09:23;;;;;;;2.93;2.00;;;12.70;99.90;;;;;;4963402;28;20181;-73
2021/05/07 11:11:53;;;;;;;2.90;1.60;;;12.50;99.90;;;;;;4971855;28;20602;-74
2021/05/07 11:14:20;;;;;;;2.67;2.10;;;12.70;99.90;;;;;;4994853;28;20594;-73
2021/05/07 11:16:46;;;;;;;2.77;1.80;;;12.10;99.90;;;;;;4993976;28;20651;-73
2021/05/07 11:19:21;;;;;;;2.60;1.60;;;11.90;99.90;;;;;;4994143;28;20628;-73
2021/05/07 11:22:01;;;;;;;3.03;1.90;;;12.10;99.90;;;;;;5012321;28;20664;-73
2021/05/07 11:24:28;;;;;;;3.17;1.80;;;12.10;99.90;;;;;;4984709;28;20216;-73
2021/05/07 11:26:54;;;;;;;3.23;1.93;;;12.20;99.90;;;;;;4994073;28;20250;-73
2021/05/07 11:29:32;;;;;;;2.90;1.70;;;12.40;99.90;;;;;;4978363;28;20213;-73
2021/05/07 11:32:11;;;;;;;2.00;1.70;;;12.40;99.90;;;;;;4991965;28;20195;-72
2021/05/07 11:34:37;;;;;;;2.43;2.00;;;12.40;99.90;;;;;;4977594;28;20216;-73
2021/05/07 11:37:03;;;;;;;2.70;1.77;;;12.60;99.90;;;;;;4978593;28;20237;-73
2021/05/07 11:39:28;;;;;;;2.27;1.70;;;13.20;99.90;;;;;;4978525;28;20259;-73
2021/05/07 11:41:54;;;;;;;2.70;1.90;;;13.50;99.90;;;;;;4962402;28;20187;-73
2021/05/07 11:44:19;;;;;;;2.50;1.60;;;13.80;99.90;;;;;;4962708;28;20635;-73
2021/05/07 11:46:55;;;;;;;3.77;1.80;;;13.60;99.90;;;;;;4978565;28;20276;-72
2021/05/07 11:49:20;;;;;;;3.20;1.50;;;13.10;99.90;;;;;;4990965;28;20581;-73
2021/05/07 11:51:47;;;;;;;1.83;1.60;;;13.10;99.90;;;;;;4991090;28;20190;-73
2021/05/07 11:54:12;;;;;;;3.27;1.90;;;13.20;99.90;;;;;;4991274;28;20258;-73
2021/05/07 11:56:38;;;;;;;2.77;1.70;;;12.90;99.90;;;;;;4974842;28;20665;-73
2021/05/07 11:59:03;;;;;;;2.07;1.50;;;12.90;99.90;;;;;;4975185;28;20176;-74
2021/05/07 12:01:29;;;;;;;3.03;1.70;;;13.10;99.90;;;;;;4992494;28;20651;-73
2021/05/07 12:03:56;;;;;;;1.90;1.50;;;13.20;99.90;;;;;;4992123;28;20204;-73
2021/05/07 12:06:24;;;;;;;1.50;1.40;;;13.40;99.90;;;;;;5010321;28;20179;-75
2021/05/07 12:08:51;;;;;;;1.80;1.53;;;13.30;99.90;;;;;;4985576;28;20334;-73
2021/05/07 12:11:17;;;;;;;1.97;1.60;;;13.10;99.90;;;;;;4997508;28;20183;-72
2021/05/07 12:13:43;;;;;;;1.43;1.30;;;13.30;99.90;;;;;;5014155;28;20198;-71
2021/05/07 12:16:09;;;;;;;2.07;1.40;;;13.30;99.90;;;;;;4997577;28;20559;-71
2021/05/07 12:18:37;;;;;;;1.70;1.60;;;13.10;99.90;;;;;;5008658;28;20187;-70
2021/05/07 12:21:03;;;;;;;3.50;1.90;;;13.10;99.90;;;;;;5003466;28;20186;-72
2021/05/07 12:23:45;;;;;;;2.80;1.50;;;13.10;99.90;;;;;;5004270;28;20206;-72
2021/05/07 12:26:11;;;;;;;2.40;1.50;;;13.30;99.90;;;;;;5013772;28;20210;-72
2021/05/07 12:28:38;;;;;;;2.40;1.80;;;13.40;99.90;;;;;;5003474;28;20202;-71
2021/05/07 12:31:05;;;;;;;2.70;1.90;;;13.20;99.90;;;;;;5008369;28;20266;-72
2021/05/07 12:33:30;;;;;;;3.03;1.77;;;13.00;99.90;;;;;;5010624;28;20681;-72
2021/05/07 12:35:57;;;;;;;2.13;1.70;;;12.70;99.90;;;;;;5017071;28;20258;-75
2021/05/07 12:40:49;;;;;;;5.27;1.90;;;12.60;99.90;;;;;;5015197;28;20210;-71
2021/05/07 12:43:14;;;;;;;4.73;2.47;;;12.60;99.90;;;;;;5007766;28;20203;-72
2021/05/07 12:45:40;;;;;;;2.20;2.00;;;12.20;99.90;;;;;;5003608;28;20579;-74